Terminal Aerodrome Forecast
Issued by NWS St Louis, MO

Home | Current Version | Previous Version | Text Only | Print | Product List | Glossary On
Versions: 1 2 3 4 5 6 7 8 9 10 11 12 13 14 15
927
FTUS43 KLSX 201734
TAFCOU
TAF
KCOU 201734Z 2018/2118 21009KT P6SM BKN030
     FM202000 23008KT P6SM VCTS OVC035CB
     FM202200 23009KT P6SM OVC045
     FM210300 27008KT P6SM SCT250=

USA.gov is the U.S. government's official web portal to all federal, state and local government web resources and services.